sensor_id;sensor_type;location;lat;lon;timestamp;temperature;humidity
10433;DHT22;5263;48.680;9.004;2022-09-09T00:02:21;14.10;99.90
10433;DHT22;5263;48.680;9.004;2022-09-09T00:05:12;14.20;99.90
10433;DHT22;5263;48.680;9.004;2022-09-09T00:07:43;14.30;99.90
10433;DHT22;5263;48.680;9.004;2022-09-09T00:10:20;14.40;99.90
10433;DHT22;5263;48.680;9.004;2022-09-09T00:21:17;14.80;99.90
10433;DHT22;5263;48.680;9.004;2022-09-09T00:23:49;14.80;99.90
10433;DHT22;5263;48.680;9.004;2022-09-09T00:31:39;14.80;99.90
10433;DHT22;5263;48.680;9.004;2022-09-09T00:34:12;14.70;99.90
10433;DHT22;5263;48.680;9.004;2022-09-09T00:36:40;14.80;99.90
10433;DHT22;5263;48.680;9.004;2022-09-09T00:39:15;14.70;99.90
10433;DHT22;5263;48.680;9.004;2022-09-09T00:44:31;14.70;99.90
10433;DHT22;5263;48.680;9.004;2022-09-09T00:49:47;14.70;99.90
10433;DHT22;5263;48.680;9.004;2022-09-09T00:52:26;14.50;99.90
10433;DHT22;5263;48.680;9.004;2022-09-09T00:57:32;14.70;99.90
10433;DHT22;5263;48.680;9.004;2022-09-09T01:00:24;14.70;99.90
10433;DHT22;5263;48.680;9.004;2022-09-09T01:06:02;14.70;99.90
10433;DHT22;5263;48.680;9.004;2022-09-09T01:11:27;14.90;99.90
10433;DHT22;5263;48.680;9.004;2022-09-09T01:16:38;15.10;99.90
10433;DHT22;5263;48.680;9.004;2022-09-09T01:19:07;15.00;99.90
10433;DHT22;5263;48.680;9.004;2022-09-09T01:21:52;14.90;99.90
10433;DHT22;5263;48.680;9.004;2022-09-09T01:24:39;14.90;99.90
10433;DHT22;5263;48.680;9.004;2022-09-09T01:27:06;14.80;99.90
10433;DHT22;5263;48.680;9.004;2022-09-09T01:29:33;14.60;99.90
10433;DHT22;5263;48.680;9.004;2022-09-09T01:35:02;14.30;99.90
10433;DHT22;5263;48.680;9.004;2022-09-09T01:37:28;14.50;99.90
10433;DHT22;5263;48.680;9.004;2022-09-09T01:39:54;14.50;99.90
10433;DHT22;5263;48.680;9.004;2022-09-09T01:42:19;14.70;99.90
10433;DHT22;5263;48.680;9.004;2022-09-09T01:44:45;14.90;99.90
10433;DHT22;5263;48.680;9.004;2022-09-09T01:47:11;14.80;99.90
10433;DHT22;5263;48.680;9.004;2022-09-09T01:49:36;14.90;99.90
10433;DHT22;5263;48.680;9.004;2022-09-09T01:52:02;14.80;99.90
10433;DHT22;5263;48.680;9.004;2022-09-09T01:54:30;14.60;99.90
10433;DHT22;5263;48.680;9.004;2022-09-09T01:57:20;14.40;99.90
10433;DHT22;5263;48.680;9.004;2022-09-09T02:08:29;13.70;99.90
10433;DHT22;5263;48.680;9.004;2022-09-09T02:13:26;13.60;99.90
10433;DHT22;5263;48.680;9.004;2022-09-09T02:19:06;13.60;99.90
10433;DHT22;5263;48.680;9.004;2022-09-09T02:21:33;13.50;99.90
10433;DHT22;5263;48.680;9.004;2022-09-09T02:24:05;13.60;99.90
10433;DHT22;5263;48.680;9.004;2022-09-09T02:26:37;13.60;99.90
10433;DHT22;5263;48.680;9.004;2022-09-09T02:29:15;13.80;99.90
10433;DHT22;5263;48.680;9.004;2022-09-09T02:31:43;13.90;99.90
10433;DHT22;5263;48.680;9.004;2022-09-09T02:34:11;13.80;99.90
10433;DHT22;5263;48.680;9.004;2022-09-09T02:36:40;14.00;99.90
10433;DHT22;5263;48.680;9.004;2022-09-09T02:39:08;14.00;99.90
10433;DHT22;5263;48.680;9.004;2022-09-09T02:41:37;13.90;99.90
10433;DHT22;5263;48.680;9.004;2022-09-09T02:44:14;13.90;99.90
10433;DHT22;5263;48.680;9.004;2022-09-09T02:50:14;13.70;99.90
10433;DHT22;5263;48.680;9.004;2022-09-09T02:52:55;13.60;99.90
10433;DHT22;5263;48.680;9.004;2022-09-09T02:57:52;13.60;99.90
10433;DHT22;5263;48.680;9.004;2022-09-09T03:00:26;13.60;99.90
10433;DHT22;5263;48.680;9.004;2022-09-09T03:02:53;13.30;99.90
10433;DHT22;5263;48.680;9.004;2022-09-09T03:05:20;13.30;99.90
10433;DHT22;5263;48.680;9.004;2022-09-09T03:07:46;13.30;99.90
10433;DHT22;5263;48.680;9.004;2022-09-09T03:10:12;13.30;99.90
10433;DHT22;5263;48.680;9.004;2022-09-09T03:12:38;13.20;99.90
10433;DHT22;5263;48.680;9.004;2022-09-09T03:15:05;13.30;99.90
10433;DHT22;5263;48.680;9.004;2022-09-09T03:17:31;13.30;99.90
10433;DHT22;5263;48.680;9.004;2022-09-09T03:19:57;13.40;99.90
10433;DHT22;5263;48.680;9.004;2022-09-09T03:22:24;13.60;99.90
10433;DHT22;5263;48.680;9.004;2022-09-09T03:24:51;13.60;99.90
10433;DHT22;5263;48.680;9.004;2022-09-09T03:27:16;13.70;99.90
10433;DHT22;5263;48.680;9.004;2022-09-09T03:29:42;13.70;99.90
10433;DHT22;5263;48.680;9.004;2022-09-09T03:32:08;13.60;99.90
10433;DHT22;5263;48.680;9.004;2022-09-09T03:34:36;13.60;99.90
10433;DHT22;5263;48.680;9.004;2022-09-09T03:37:04;13.60;99.90
10433;DHT22;5263;48.680;9.004;2022-09-09T03:39:31;13.60;99.90
10433;DHT22;5263;48.680;9.004;2022-09-09T03:41:56;13.70;99.90
10433;DHT22;5263;48.680;9.004;2022-09-09T03:44:22;13.70;99.90
10433;DHT22;5263;48.680;9.004;2022-09-09T03:46:47;13.80;99.90
10433;DHT22;5263;48.680;9.004;2022-09-09T03:49:13;13.80;99.90
10433;DHT22;5263;48.680;9.004;2022-09-09T03:51:39;14.00;99.90
10433;DHT22;5263;48.680;9.004;2022-09-09T03:54:06;14.00;99.90
10433;DHT22;5263;48.680;9.004;2022-09-09T03:56:34;14.00;99.90
10433;DHT22;5263;48.680;9.004;2022-09-09T03:58:59;14.00;99.90
10433;DHT22;5263;48.680;9.004;2022-09-09T04:01:25;14.00;99.90
10433;DHT22;5263;48.680;9.004;2022-09-09T04:03:51;14.00;99.90
10433;DHT22;5263;48.680;9.004;2022-09-09T04:06:18;13.90;99.90
10433;DHT22;5263;48.680;9.004;2022-09-09T04:08:45;13.90;99.90
10433;DHT22;5263;48.680;9.004;2022-09-09T04:11:14;13.90;99.90
10433;DHT22;5263;48.680;9.004;2022-09-09T04:13:40;14.10;99.90
10433;DHT22;5263;48.680;9.004;2022-09-09T04:16:08;13.90;99.90
10433;DHT22;5263;48.680;9.004;2022-09-09T04:18:34;14.00;99.90
10433;DHT22;5263;48.680;9.004;2022-09-09T04:21:00;14.10;99.90
10433;DHT22;5263;48.680;9.004;2022-09-09T04:23:27;14.10;99.90
10433;DHT22;5263;48.680;9.004;2022-09-09T04:25:58;14.20;99.90
10433;DHT22;5263;48.680;9.004;2022-09-09T04:28:27;14.20;99.90
10433;DHT22;5263;48.680;9.004;2022-09-09T04:30:53;14.30;99.90
10433;DHT22;5263;48.680;9.004;2022-09-09T04:33:19;14.30;99.90
10433;DHT22;5263;48.680;9.004;2022-09-09T04:35:49;14.30;99.90
10433;DHT22;5263;48.680;9.004;2022-09-09T04:38:16;14.20;99.90
10433;DHT22;5263;48.680;9.004;2022-09-09T04:40:43;14.40;99.90
10433;DHT22;5263;48.680;9.004;2022-09-09T04:43:11;14.30;99.90
10433;DHT22;5263;48.680;9.004;2022-09-09T04:45:37;14.30;99.90
10433;DHT22;5263;48.680;9.004;2022-09-09T04:48:02;14.30;99.90
10433;DHT22;5263;48.680;9.004;2022-09-09T04:50:28;14.30;99.90
10433;DHT22;5263;48.680;9.004;2022-09-09T04:52:54;14.10;99.90
10433;DHT22;5263;48.680;9.004;2022-09-09T04:55:19;14.00;99.90
10433;DHT22;5263;48.680;9.004;2022-09-09T04:57:45;14.00;99.90
10433;DHT22;5263;48.680;9.004;2022-09-09T05:00:11;14.10;99.90
10433;DHT22;5263;48.680;9.004;2022-09-09T05:02:39;14.10;99.90
10433;DHT22;5263;48.680;9.004;2022-09-09T05:05:05;13.90;99.90
10433;DHT22;5263;48.680;9.004;2022-09-09T05:07:31;13.90;99.90
10433;DHT22;5263;48.680;9.004;2022-09-09T05:09:57;14.10;99.90
10433;DHT22;5263;48.680;9.004;2022-09-09T05:12:23;14.10;99.90
10433;DHT22;5263;48.680;9.004;2022-09-09T05:14:51;14.00;99.90
10433;DHT22;5263;48.680;9.004;2022-09-09T05:17:17;13.90;99.90
10433;DHT22;5263;48.680;9.004;2022-09-09T05:19:43;13.90;99.90
10433;DHT22;5263;48.680;9.004;2022-09-09T05:22:09;14.10;99.90
10433;DHT22;5263;48.680;9.004;2022-09-09T05:24:36;14.30;99.90
10433;DHT22;5263;48.680;9.004;2022-09-09T05:27:02;14.30;99.90
10433;DHT22;5263;48.680;9.004;2022-09-09T05:29:34;14.30;99.90
10433;DHT22;5263;48.680;9.004;2022-09-09T05:32:00;14.30;99.90
10433;DHT22;5263;48.680;9.004;2022-09-09T05:34:26;14.40;99.90
10433;DHT22;5263;48.680;9.004;2022-09-09T05:36:52;14.50;99.90
10433;DHT22;5263;48.680;9.004;2022-09-09T05:39:18;14.60;99.90
10433;DHT22;5263;48.680;9.004;2022-09-09T05:41:44;14.40;99.90
10433;DHT22;5263;48.680;9.004;2022-09-09T05:44:09;14.40;99.90
10433;DHT22;5263;48.680;9.004;2022-09-09T05:46:35;14.40;99.90
10433;DHT22;5263;48.680;9.004;2022-09-09T05:49:02;14.60;99.90
10433;DHT22;5263;48.680;9.004;2022-09-09T05:51:28;14.60;99.90
10433;DHT22;5263;48.680;9.004;2022-09-09T05:53:55;14.60;99.90
10433;DHT22;5263;48.680;9.004;2022-09-09T05:56:26;14.60;99.90
10433;DHT22;5263;48.680;9.004;2022-09-09T05:58:53;14.60;99.90
10433;DHT22;5263;48.680;9.004;2022-09-09T06:01:27;14.60;99.90
10433;DHT22;5263;48.680;9.004;2022-09-09T06:03:53;14.70;99.90
10433;DHT22;5263;48.680;9.004;2022-09-09T06:06:21;14.60;99.90
10433;DHT22;5263;48.680;9.004;2022-09-09T06:08:49;14.50;99.90
10433;DHT22;5263;48.680;9.004;2022-09-09T06:11:21;14.50;99.90
10433;DHT22;5263;48.680;9.004;2022-09-09T06:13:47;14.50;99.90
10433;DHT22;5263;48.680;9.004;2022-09-09T06:16:17;14.60;99.90
10433;DHT22;5263;48.680;9.004;2022-09-09T06:18:43;14.70;99.90
10433;DHT22;5263;48.680;9.004;2022-09-09T06:21:15;14.80;99.90
10433;DHT22;5263;48.680;9.004;2022-09-09T06:23:42;14.80;99.90
10433;DHT22;5263;48.680;9.004;2022-09-09T06:26:17;14.90;99.90
10433;DHT22;5263;48.680;9.004;2022-09-09T06:28:44;14.80;99.90
10433;DHT22;5263;48.680;9.004;2022-09-09T06:31:12;15.00;99.90
10433;DHT22;5263;48.680;9.004;2022-09-09T06:33:39;15.20;99.90
10433;DHT22;5263;48.680;9.004;2022-09-09T06:36:09;15.20;99.90
10433;DHT22;5263;48.680;9.004;2022-09-09T06:38:36;15.30;99.90
10433;DHT22;5263;48.680;9.004;2022-09-09T06:41:02;15.40;99.90
10433;DHT22;5263;48.680;9.004;2022-09-09T06:43:28;15.40;99.90
10433;DHT22;5263;48.680;9.004;2022-09-09T06:45:58;15.50;99.90
10433;DHT22;5263;48.680;9.004;2022-09-09T06:48:25;15.60;99.90
10433;DHT22;5263;48.680;9.004;2022-09-09T06:50:59;15.70;99.90
10433;DHT22;5263;48.680;9.004;2022-09-09T06:53:26;15.70;99.90
10433;DHT22;5263;48.680;9.004;2022-09-09T06:55:52;15.80;99.90
10433;DHT22;5263;48.680;9.004;2022-09-09T06:58:18;16.00;99.90
10433;DHT22;5263;48.680;9.004;2022-09-09T07:00:44;16.10;99.90
10433;DHT22;5263;48.680;9.004;2022-09-09T07:03:10;16.00;99.90
10433;DHT22;5263;48.680;9.004;2022-09-09T07:05:36;16.10;99.90
10433;DHT22;5263;48.680;9.004;2022-09-09T07:08:02;16.00;99.90
10433;DHT22;5263;48.680;9.004;2022-09-09T07:10:28;16.00;99.90
10433;DHT22;5263;48.680;9.004;2022-09-09T07:12:54;16.10;99.90
10433;DHT22;5263;48.680;9.004;2022-09-09T07:15:20;16.30;99.90
10433;DHT22;5263;48.680;9.004;2022-09-09T07:17:46;16.30;99.90
10433;DHT22;5263;48.680;9.004;2022-09-09T07:20:13;16.30;99.90
10433;DHT22;5263;48.680;9.004;2022-09-09T07:22:40;16.30;99.90
10433;DHT22;5263;48.680;9.004;2022-09-09T07:25:06;16.50;99.90
10433;DHT22;5263;48.680;9.004;2022-09-09T07:27:32;16.50;99.90
10433;DHT22;5263;48.680;9.004;2022-09-09T07:29:58;16.60;99.90
10433;DHT22;5263;48.680;9.004;2022-09-09T07:32:24;16.80;99.90
10433;DHT22;5263;48.680;9.004;2022-09-09T07:34:51;16.80;99.90
10433;DHT22;5263;48.680;9.004;2022-09-09T07:37:17;16.80;99.90
10433;DHT22;5263;48.680;9.004;2022-09-09T07:39:43;16.90;99.90
10433;DHT22;5263;48.680;9.004;2022-09-09T07:42:09;16.80;99.90
10433;DHT22;5263;48.680;9.004;2022-09-09T07:44:37;16.80;99.90
10433;DHT22;5263;48.680;9.004;2022-09-09T07:47:05;17.00;99.90
10433;DHT22;5263;48.680;9.004;2022-09-09T07:49:30;17.00;99.90
10433;DHT22;5263;48.680;9.004;2022-09-09T07:51:57;16.90;99.90
10433;DHT22;5263;48.680;9.004;2022-09-09T07:54:23;16.90;99.90
10433;DHT22;5263;48.680;9.004;2022-09-09T07:56:49;17.00;99.90
10433;DHT22;5263;48.680;9.004;2022-09-09T07:59:16;17.00;99.90
10433;DHT22;5263;48.680;9.004;2022-09-09T08:01:44;17.00;99.90
10433;DHT22;5263;48.680;9.004;2022-09-09T08:04:15;17.10;99.90
10433;DHT22;5263;48.680;9.004;2022-09-09T08:06:44;17.10;99.90
10433;DHT22;5263;48.680;9.004;2022-09-09T08:09:10;17.40;99.90
10433;DHT22;5263;48.680;9.004;2022-09-09T08:11:37;17.50;99.90
10433;DHT22;5263;48.680;9.004;2022-09-09T08:14:03;17.70;99.90
10433;DHT22;5263;48.680;9.004;2022-09-09T08:16:31;17.90;99.90
10433;DHT22;5263;48.680;9.004;2022-09-09T08:18:57;17.90;99.90
10433;DHT22;5263;48.680;9.004;2022-09-09T08:21:26;18.10;99.90
10433;DHT22;5263;48.680;9.004;2022-09-09T08:23:56;18.10;99.90
10433;DHT22;5263;48.680;9.004;2022-09-09T08:26:24;18.30;99.90
10433;DHT22;5263;48.680;9.004;2022-09-09T08:28:51;18.10;99.90
10433;DHT22;5263;48.680;9.004;2022-09-09T08:31:19;18.20;99.90
10433;DHT22;5263;48.680;9.004;2022-09-09T08:33:46;18.00;99.90
10433;DHT22;5263;48.680;9.004;2022-09-09T08:36:17;18.00;99.90
10433;DHT22;5263;48.680;9.004;2022-09-09T08:38:43;18.10;99.90
10433;DHT22;5263;48.680;9.004;2022-09-09T08:50:29;19.30;99.90
10433;DHT22;5263;48.680;9.004;2022-09-09T08:53:14;19.60;99.90
10433;DHT22;5263;48.680;9.004;2022-09-09T09:06:18;17.00;99.90
10433;DHT22;5263;48.680;9.004;2022-09-09T09:09:11;16.00;99.90
10433;DHT22;5263;48.680;9.004;2022-09-09T09:11:51;15.20;99.90
10433;DHT22;5263;48.680;9.004;2022-09-09T09:14:22;15.00;99.90
10433;DHT22;5263;48.680;9.004;2022-09-09T09:16:57;14.80;99.90
10433;DHT22;5263;48.680;9.004;2022-09-09T09:19:27;14.70;99.90
10433;DHT22;5263;48.680;9.004;2022-09-09T09:22:15;14.70;99.90
10433;DHT22;5263;48.680;9.004;2022-09-09T09:24:54;15.00;99.90
10433;DHT22;5263;48.680;9.004;2022-09-09T09:27:43;15.50;99.90
10433;DHT22;5263;48.680;9.004;2022-09-09T09:30:16;16.10;99.90
10433;DHT22;5263;48.680;9.004;2022-09-09T09:32:53;16.40;99.90
10433;DHT22;5263;48.680;9.004;2022-09-09T09:35:19;16.50;99.90
10433;DHT22;5263;48.680;9.004;2022-09-09T09:37:45;16.70;99.90
10433;DHT22;5263;48.680;9.004;2022-09-09T09:40:14;17.00;99.90
10433;DHT22;5263;48.680;9.004;2022-09-09T09:45:35;17.20;99.90
10433;DHT22;5263;48.680;9.004;2022-09-09T09:48:05;17.60;99.90
10433;DHT22;5263;48.680;9.004;2022-09-09T09:50:32;18.10;99.90
10433;DHT22;5263;48.680;9.004;2022-09-09T09:53:17;18.50;99.90
10433;DHT22;5263;48.680;9.004;2022-09-09T09:58:37;21.20;99.90
10433;DHT22;5263;48.680;9.004;2022-09-09T10:01:22;23.30;99.90
10433;DHT22;5263;48.680;9.004;2022-09-09T10:03:55;25.50;99.90
10433;DHT22;5263;48.680;9.004;2022-09-09T10:06:36;25.50;99.90
10433;DHT22;5263;48.680;9.004;2022-09-09T10:09:17;25.30;99.90
10433;DHT22;5263;48.680;9.004;2022-09-09T10:11:52;23.40;99.90
10433;DHT22;5263;48.680;9.004;2022-09-09T10:14:30;21.40;99.90
10433;DHT22;5263;48.680;9.004;2022-09-09T10:20:11;23.40;99.90
10433;DHT22;5263;48.680;9.004;2022-09-09T10:22:39;23.50;99.90
10433;DHT22;5263;48.680;9.004;2022-09-09T10:25:34;23.50;99.90
10433;DHT22;5263;48.680;9.004;2022-09-09T10:33:32;23.40;99.90
10433;DHT22;5263;48.680;9.004;2022-09-09T10:38:45;24.10;99.90
10433;DHT22;5263;48.680;9.004;2022-09-09T10:52:21;24.30;99.90
10433;DHT22;5263;48.680;9.004;2022-09-09T11:00:18;29.00;80.90
10433;DHT22;5263;48.680;9.004;2022-09-09T11:02:51;26.00;85.10
10433;DHT22;5263;48.680;9.004;2022-09-09T11:05:20;23.80;92.80
10433;DHT22;5263;48.680;9.004;2022-09-09T11:13:03;20.10;95.90
10433;DHT22;5263;48.680;9.004;2022-09-09T11:15:40;19.70;98.40
10433;DHT22;5263;48.680;9.004;2022-09-09T11:18:12;19.30;99.90
10433;DHT22;5263;48.680;9.004;2022-09-09T11:20:39;18.70;99.90
10433;DHT22;5263;48.680;9.004;2022-09-09T11:23:12;18.40;99.90
10433;DHT22;5263;48.680;9.004;2022-09-09T11:25:43;18.00;99.90
10433;DHT22;5263;48.680;9.004;2022-09-09T11:39:38;17.70;99.90
10433;DHT22;5263;48.680;9.004;2022-09-09T11:44:37;18.10;99.90
10433;DHT22;5263;48.680;9.004;2022-09-09T11:47:03;18.10;99.90
10433;DHT22;5263;48.680;9.004;2022-09-09T11:49:42;18.70;99.90
10433;DHT22;5263;48.680;9.004;2022-09-09T11:52:37;18.90;99.90
10433;DHT22;5263;48.680;9.004;2022-09-09T11:55:11;19.40;99.90
10433;DHT22;5263;48.680;9.004;2022-09-09T11:57:38;20.00;99.90
10433;DHT22;5263;48.680;9.004;2022-09-09T12:00:05;19.70;99.90
10433;DHT22;5263;48.680;9.004;2022-09-09T12:02:31;19.80;99.90
10433;DHT22;5263;48.680;9.004;2022-09-09T12:05:07;21.10;99.90
10433;DHT22;5263;48.680;9.004;2022-09-09T12:07:35;21.70;99.90
10433;DHT22;5263;48.680;9.004;2022-09-09T12:10:18;22.00;99.90
10433;DHT22;5263;48.680;9.004;2022-09-09T12:12:44;23.40;98.60
10433;DHT22;5263;48.680;9.004;2022-09-09T12:20:20;28.80;75.50
10433;DHT22;5263;48.680;9.004;2022-09-09T12:22:59;26.20;80.80
10433;DHT22;5263;48.680;9.004;2022-09-09T12:34:23;24.20;86.40
10433;DHT22;5263;48.680;9.004;2022-09-09T12:36:57;22.80;90.50
10433;DHT22;5263;48.680;9.004;2022-09-09T12:39:41;21.90;93.50
10433;DHT22;5263;48.680;9.004;2022-09-09T12:42:23;21.40;94.90
10433;DHT22;5263;48.680;9.004;2022-09-09T12:44:57;20.30;97.50
10433;DHT22;5263;48.680;9.004;2022-09-09T12:48:05;20.70;97.90
10433;DHT22;5263;48.680;9.004;2022-09-09T12:50:34;20.60;98.70
10433;DHT22;5263;48.680;9.004;2022-09-09T12:53:25;20.50;98.50
10433;DHT22;5263;48.680;9.004;2022-09-09T12:56:38;21.10;97.30
10433;DHT22;5263;48.680;9.004;2022-09-09T12:58:39;21.20;96.80
10433;DHT22;5263;48.680;9.004;2022-09-09T13:01:28;22.50;95.90
10433;DHT22;5263;48.680;9.004;2022-09-09T13:03:55;26.00;90.40
10433;DHT22;5263;48.680;9.004;2022-09-09T13:06:31;27.80;82.60
10433;DHT22;5263;48.680;9.004;2022-09-09T13:08:59;30.80;69.60
10433;DHT22;5263;48.680;9.004;2022-09-09T13:11:48;31.00;64.30
10433;DHT22;5263;48.680;9.004;2022-09-09T13:14:23;28.90;61.70
10433;DHT22;5263;48.680;9.004;2022-09-09T13:16:59;28.40;61.20
10433;DHT22;5263;48.680;9.004;2022-09-09T13:19:26;27.60;64.70
10433;DHT22;5263;48.680;9.004;2022-09-09T13:21:54;25.80;69.30
10433;DHT22;5263;48.680;9.004;2022-09-09T13:24:30;24.70;72.70
10433;DHT22;5263;48.680;9.004;2022-09-09T13:27:02;25.00;73.00
10433;DHT22;5263;48.680;9.004;2022-09-09T13:29:29;24.70;75.50
10433;DHT22;5263;48.680;9.004;2022-09-09T13:32:04;23.70;77.60
10433;DHT22;5263;48.680;9.004;2022-09-09T13:34:33;23.60;79.70
10433;DHT22;5263;48.680;9.004;2022-09-09T13:37:02;24.10;77.30
10433;DHT22;5263;48.680;9.004;2022-09-09T13:39:33;23.40;80.60
10433;DHT22;5263;48.680;9.004;2022-09-09T13:42:00;24.30;78.20
10433;DHT22;5263;48.680;9.004;2022-09-09T13:44:38;22.90;78.40
10433;DHT22;5263;48.680;9.004;2022-09-09T13:47:18;22.20;81.40
10433;DHT22;5263;48.680;9.004;2022-09-09T13:49:48;22.80;81.40
10433;DHT22;5263;48.680;9.004;2022-09-09T13:52:16;23.20;79.20
10433;DHT22;5263;48.680;9.004;2022-09-09T13:54:43;23.40;78.40
10433;DHT22;5263;48.680;9.004;2022-09-09T13:57:17;22.80;78.70
10433;DHT22;5263;48.680;9.004;2022-09-09T13:59:46;22.20;79.30
10433;DHT22;5263;48.680;9.004;2022-09-09T14:02:13;21.90;81.20
10433;DHT22;5263;48.680;9.004;2022-09-09T14:04:39;22.20;81.50
10433;DHT22;5263;48.680;9.004;2022-09-09T14:07:11;21.80;81.10
10433;DHT22;5263;48.680;9.004;2022-09-09T14:09:37;21.70;80.90
10433;DHT22;5263;48.680;9.004;2022-09-09T14:12:03;21.90;81.20
10433;DHT22;5263;48.680;9.004;2022-09-09T14:14:29;22.00;78.50
10433;DHT22;5263;48.680;9.004;2022-09-09T14:16:54;22.30;77.70
10433;DHT22;5263;48.680;9.004;2022-09-09T14:19:20;22.30;78.50
10433;DHT22;5263;48.680;9.004;2022-09-09T14:21:45;21.90;78.30
10433;DHT22;5263;48.680;9.004;2022-09-09T14:24:11;21.80;78.90
10433;DHT22;5263;48.680;9.004;2022-09-09T14:26:37;21.90;79.10
10433;DHT22;5263;48.680;9.004;2022-09-09T14:29:03;21.30;80.00
10433;DHT22;5263;48.680;9.004;2022-09-09T14:31:29;21.50;79.40
10433;DHT22;5263;48.680;9.004;2022-09-09T14:33:54;21.80;78.80
10433;DHT22;5263;48.680;9.004;2022-09-09T14:36:20;21.70;77.60
10433;DHT22;5263;48.680;9.004;2022-09-09T14:38:46;22.10;77.70
10433;DHT22;5263;48.680;9.004;2022-09-09T14:41:14;22.10;77.10
10433;DHT22;5263;48.680;9.004;2022-09-09T14:43:42;22.50;77.60
10433;DHT22;5263;48.680;9.004;2022-09-09T14:46:10;23.10;77.00
10433;DHT22;5263;48.680;9.004;2022-09-09T14:48:36;23.30;75.10
10433;DHT22;5263;48.680;9.004;2022-09-09T14:51:10;22.80;75.30
10433;DHT22;5263;48.680;9.004;2022-09-09T14:53:36;22.40;76.80
10433;DHT22;5263;48.680;9.004;2022-09-09T14:56:24;22.60;77.40
10433;DHT22;5263;48.680;9.004;2022-09-09T14:58:50;22.30;77.10
10433;DHT22;5263;48.680;9.004;2022-09-09T15:01:19;22.00;78.10
10433;DHT22;5263;48.680;9.004;2022-09-09T15:04:00;21.30;81.70
10433;DHT22;5263;48.680;9.004;2022-09-09T15:06:31;21.20;80.40
10433;DHT22;5263;48.680;9.004;2022-09-09T15:08:58;21.80;80.60
10433;DHT22;5263;48.680;9.004;2022-09-09T15:11:28;21.80;81.60
10433;DHT22;5263;48.680;9.004;2022-09-09T15:13:56;21.70;81.00
10433;DHT22;5263;48.680;9.004;2022-09-09T15:16:25;21.70;82.00
10433;DHT22;5263;48.680;9.004;2022-09-09T15:18:53;21.90;82.20
10433;DHT22;5263;48.680;9.004;2022-09-09T15:21:21;22.20;82.30
10433;DHT22;5263;48.680;9.004;2022-09-09T15:23:48;21.90;81.20
10433;DHT22;5263;48.680;9.004;2022-09-09T15:26:15;21.60;83.20
10433;DHT22;5263;48.680;9.004;2022-09-09T15:28:41;21.90;81.90
10433;DHT22;5263;48.680;9.004;2022-09-09T15:31:12;21.80;76.60
10433;DHT22;5263;48.680;9.004;2022-09-09T15:33:40;21.70;77.90
10433;DHT22;5263;48.680;9.004;2022-09-09T15:36:20;21.10;78.20
10433;DHT22;5263;48.680;9.004;2022-09-09T15:38:47;20.60;80.60
10433;DHT22;5263;48.680;9.004;2022-09-09T15:41:13;20.20;82.50
10433;DHT22;5263;48.680;9.004;2022-09-09T15:43:43;20.00;83.80
10433;DHT22;5263;48.680;9.004;2022-09-09T15:46:26;19.80;84.90
10433;DHT22;5263;48.680;9.004;2022-09-09T15:48:57;19.70;85.40
10433;DHT22;5263;48.680;9.004;2022-09-09T15:51:25;19.80;86.10
10433;DHT22;5263;48.680;9.004;2022-09-09T15:53:55;19.70;86.50
10433;DHT22;5263;48.680;9.004;2022-09-09T15:56:22;19.80;86.90
10433;DHT22;5263;48.680;9.004;2022-09-09T15:58:47;19.60;87.70
10433;DHT22;5263;48.680;9.004;2022-09-09T16:01:13;19.50;87.40
10433;DHT22;5263;48.680;9.004;2022-09-09T16:03:42;19.50;88.70
10433;DHT22;5263;48.680;9.004;2022-09-09T16:06:08;19.40;87.90
10433;DHT22;5263;48.680;9.004;2022-09-09T16:08:35;19.30;88.90
10433;DHT22;5263;48.680;9.004;2022-09-09T16:11:16;19.30;89.00
10433;DHT22;5263;48.680;9.004;2022-09-09T16:13:43;19.30;90.10
10433;DHT22;5263;48.680;9.004;2022-09-09T16:16:13;19.30;90.10
10433;DHT22;5263;48.680;9.004;2022-09-09T16:18:42;19.20;90.40
10433;DHT22;5263;48.680;9.004;2022-09-09T16:21:19;19.20;90.50
10433;DHT22;5263;48.680;9.004;2022-09-09T16:23:46;19.30;90.60
10433;DHT22;5263;48.680;9.004;2022-09-09T16:26:13;19.30;90.70
10433;DHT22;5263;48.680;9.004;2022-09-09T16:28:39;19.20;90.80
10433;DHT22;5263;48.680;9.004;2022-09-09T16:31:10;19.00;91.10
10433;DHT22;5263;48.680;9.004;2022-09-09T16:33:37;18.90;91.40
10433;DHT22;5263;48.680;9.004;2022-09-09T16:36:10;18.70;93.20
10433;DHT22;5263;48.680;9.004;2022-09-09T16:38:37;18.50;93.50
10433;DHT22;5263;48.680;9.004;2022-09-09T16:41:04;18.50;93.50
10433;DHT22;5263;48.680;9.004;2022-09-09T16:43:34;18.50;93.60
10433;DHT22;5263;48.680;9.004;2022-09-09T16:46:02;18.50;93.70
10433;DHT22;5263;48.680;9.004;2022-09-09T16:48:31;18.60;93.80
10433;DHT22;5263;48.680;9.004;2022-09-09T16:51:06;18.60;93.20
10433;DHT22;5263;48.680;9.004;2022-09-09T16:53:33;18.50;93.30
10433;DHT22;5263;48.680;9.004;2022-09-09T16:56:04;18.30;93.30
10433;DHT22;5263;48.680;9.004;2022-09-09T16:58:29;18.20;93.80
10433;DHT22;5263;48.680;9.004;2022-09-09T17:00:59;18.10;94.20
10433;DHT22;5263;48.680;9.004;2022-09-09T17:03:25;18.00;94.60
10433;DHT22;5263;48.680;9.004;2022-09-09T17:05:51;17.90;94.90
10433;DHT22;5263;48.680;9.004;2022-09-09T17:08:16;17.90;95.30
10433;DHT22;5263;48.680;9.004;2022-09-09T17:10:42;17.90;95.70
10433;DHT22;5263;48.680;9.004;2022-09-09T17:13:08;17.70;96.20
10433;DHT22;5263;48.680;9.004;2022-09-09T17:15:39;17.80;96.70
10433;DHT22;5263;48.680;9.004;2022-09-09T17:18:08;17.70;97.10
10433;DHT22;5263;48.680;9.004;2022-09-09T17:20:41;17.70;97.60
10433;DHT22;5263;48.680;9.004;2022-09-09T17:23:08;17.40;98.30
10433;DHT22;5263;48.680;9.004;2022-09-09T17:25:35;17.30;98.80
10433;DHT22;5263;48.680;9.004;2022-09-09T17:28:01;17.10;99.70
10433;DHT22;5263;48.680;9.004;2022-09-09T17:30:30;16.90;99.90
10433;DHT22;5263;48.680;9.004;2022-09-09T17:32:59;16.80;99.90
10433;DHT22;5263;48.680;9.004;2022-09-09T17:35:25;16.90;99.90
10433;DHT22;5263;48.680;9.004;2022-09-09T17:37:53;16.80;99.90
10433;DHT22;5263;48.680;9.004;2022-09-09T17:40:20;17.00;99.90
10433;DHT22;5263;48.680;9.004;2022-09-09T17:42:46;17.10;99.90
10433;DHT22;5263;48.680;9.004;2022-09-09T17:45:12;17.10;99.90
10433;DHT22;5263;48.680;9.004;2022-09-09T17:47:38;16.80;99.90
10433;DHT22;5263;48.680;9.004;2022-09-09T17:50:05;16.60;99.90
10433;DHT22;5263;48.680;9.004;2022-09-09T17:52:32;16.20;99.90
10433;DHT22;5263;48.680;9.004;2022-09-09T17:54:58;16.00;99.90
10433;DHT22;5263;48.680;9.004;2022-09-09T17:57:23;15.90;99.90
10433;DHT22;5263;48.680;9.004;2022-09-09T17:59:50;15.80;99.90
10433;DHT22;5263;48.680;9.004;2022-09-09T18:02:15;15.60;99.90
10433;DHT22;5263;48.680;9.004;2022-09-09T18:04:41;16.00;99.90
10433;DHT22;5263;48.680;9.004;2022-09-09T18:07:07;16.10;99.90
10433;DHT22;5263;48.680;9.004;2022-09-09T18:09:33;16.10;99.90
10433;DHT22;5263;48.680;9.004;2022-09-09T18:11:59;16.20;99.90
10433;DHT22;5263;48.680;9.004;2022-09-09T18:14:29;16.10;99.90
10433;DHT22;5263;48.680;9.004;2022-09-09T18:16:56;15.90;99.90
10433;DHT22;5263;48.680;9.004;2022-09-09T18:19:25;15.90;99.90
10433;DHT22;5263;48.680;9.004;2022-09-09T18:21:52;15.90;99.90